METAR Data
IDs: Format: Raw Decoded Include TAF

Data at: 1432 UTC 15 Oct 2018

METAR for:KTZR (Columbus/Bolton Fld, OH, US)
Text:KTZR 151350Z 26008KT 10SM BKN006 OVC011 14/13 A3000
Temperature: 14.0°C ( 57°F)
Dewpoint: 13.0°C ( 55°F) [RH = 94%]
Pressure (altimeter):30.00 inches Hg (1016.0 mb)
Winds:from the W (260 degrees) at 9 MPH (8 knots; 4.1 m/s)
Visibility:10 or more sm (16+ km)
Ceiling:600 feet AGL
Clouds: broken clouds at 600 feet AGL, overcast cloud deck at 1100 feet AGL